Bay Bridge — 3FCS5 — position and weather

sailwx.info

Track history (hours):
 
Tides and Currents Weather Stations Pressure Air Temp Water Temp Dewpoint Dewpoint Depression Visibility Wind Speed Wind Dir Waves Ship Positions

Bay Bridge

Last reported at 2014-Sep-15 17:03 UTC. Time now 2014-Sep-17 05:34 UTC.
Position N 34°29' E 138°32'.

Length 267 m; draft 10.6 m.

Type: Ship (hazmat cat A). MMSI: 354120000.

Date/timePositionNaut miles runAvg speedWind from/ knotsBaromVisibWave heightAir tempDewpointWater temp
2014-Sep-15 17:03N 34°29' E 138°32'6411.6
2014-Sep-15 11:30N 35°01' E 139°41'1111.9
2014-Sep-15 10:33N 35°11' E 139°46'1211.8
2014-Sep-15 09:34N 35°23' E 139°42'5 4.5
2014-Sep-15 08:32N 35°27' E 139°40'0 0.0
2014-Sep-15 07:32N 35°27' E 139°40'0 0.0
2014-Sep-15 06:32N 35°27' E 139°40'0 0.0
2014-Sep-15 05:32N 35°27' E 139°40'0 0.0
2014-Sep-15 04:32N 35°27' E 139°40'0 0.0
2014-Sep-15 03:32N 35°27' E 139°40'0 0.0
2014-Sep-15 02:32N 35°27' E 139°40'0 0.0
2014-Sep-15 01:32N 35°27' E 139°40'0 0.0
2014-Sep-15 00:32N 35°27' E 139°40'0 0.0
2014-Sep-14 23:32N 35°27' E 139°40'0 0.0
2014-Sep-14 22:29N 35°27' E 139°40'2 2.5
2014-Sep-14 21:33N 35°25' E 139°42'1111.3
2014-Sep-14 20:33N 35°15' E 139°47'1010.0
2014-Sep-14 19:33N 35°05' E 139°45'8 8.4
2014-Sep-14 18:34N 34°57' E 139°43'10 8.2
2014-Sep-14 17:23N 34°48' E 139°48'810.1
2014-Sep-14 16:33N 34°48' E 139°59'1111.3
2014-Sep-14 15:34N 34°52' E 140°12'1111.2
2014-Sep-14 14:33N 34°60' E 140°21'1110.8
2014-Sep-14 13:33N 35°07' E 140°30'1010.2
2014-Sep-14 12:33N 35°14' E 140°39'1010.1
2014-Sep-14 11:34N 35°23' E 140°46'1413.1
2014-Sep-14 10:32N 35°34' E 140°56'1212.6
2014-Sep-14 09:33N 35°44' E 141°05'1212.3
2014-Sep-14 08:33N 35°53' E 141°15'1212.1
2014-Sep-14 07:33N 36°02' E 141°25'1311.6
2014-Sep-14 06:26N 36°11' E 141°36'  
Track history (hours):
 
Tides and Currents Weather Stations Pressure Air Temp Water Temp Dewpoint Dewpoint Depression Visibility Wind Speed Wind Dir Waves Ship Positions

Bay Bridge

Last reported at 2014-Sep-15 17:03 UTC. Time now 2014-Sep-17 05:34 UTC.
Position N 34°29' E 138°32'.

Length 267 m; draft 10.6 m.

Type: Ship (hazmat cat A). MMSI: 354120000.

Date/timePositionNaut miles runAvg speedWind from/ knotsBaromVisibWave heightAir tempDewpointWater temp
2014-Sep-15 17:03N 34°29' E 138°32'6411.6
2014-Sep-15 11:30N 35°01' E 139°41'1111.9
2014-Sep-15 10:33N 35°11' E 139°46'1211.8
2014-Sep-15 09:34N 35°23' E 139°42'5 4.5
2014-Sep-15 08:32N 35°27' E 139°40'0 0.0
2014-Sep-15 07:32N 35°27' E 139°40'0 0.0
2014-Sep-15 06:32N 35°27' E 139°40'0 0.0
2014-Sep-15 05:32N 35°27' E 139°40'0 0.0
2014-Sep-15 04:32N 35°27' E 139°40'0 0.0
2014-Sep-15 03:32N 35°27' E 139°40'0 0.0
2014-Sep-15 02:32N 35°27' E 139°40'0 0.0
2014-Sep-15 01:32N 35°27' E 139°40'0 0.0
2014-Sep-15 00:32N 35°27' E 139°40'0 0.0
2014-Sep-14 23:32N 35°27' E 139°40'0 0.0
2014-Sep-14 22:29N 35°27' E 139°40'2 2.5
2014-Sep-14 21:33N 35°25' E 139°42'1111.3
2014-Sep-14 20:33N 35°15' E 139°47'1010.0
2014-Sep-14 19:33N 35°05' E 139°45'8 8.4
2014-Sep-14 18:34N 34°57' E 139°43'10 8.2
2014-Sep-14 17:23N 34°48' E 139°48'810.1
2014-Sep-14 16:33N 34°48' E 139°59'1111.3
2014-Sep-14 15:34N 34°52' E 140°12'1111.2
2014-Sep-14 14:33N 34°60' E 140°21'1110.8
2014-Sep-14 13:33N 35°07' E 140°30'1010.2
2014-Sep-14 12:33N 35°14' E 140°39'1010.1
2014-Sep-14 11:34N 35°23' E 140°46'1413.1
2014-Sep-14 10:32N 35°34' E 140°56'1212.6
2014-Sep-14 09:33N 35°44' E 141°05'1212.3
2014-Sep-14 08:33N 35°53' E 141°15'1212.1
2014-Sep-14 07:33N 36°02' E 141°25'1311.6
2014-Sep-14 06:26N 36°11' E 141°36'  

Dump ship's entire track history